sensor_id;sensor_type;location;lat;lon;timestamp;pressure;altitude;pressure_sealevel;temperature;humidity
39491;BME280;25175;50.140;18.990;2023-03-21T00:01:54;98476.59;;;9.93;64.70
39491;BME280;25175;50.140;18.990;2023-03-21T00:05:00;98470.34;;;9.87;64.77
39491;BME280;25175;50.140;18.990;2023-03-21T00:08:04;98476.41;;;9.81;65.11
39491;BME280;25175;50.140;18.990;2023-03-21T00:11:12;98440.31;;;9.51;65.15
39491;BME280;25175;50.140;18.990;2023-03-21T00:14:17;98470.53;;;9.73;65.49
39491;BME280;25175;50.140;18.990;2023-03-21T00:17:24;98471.53;;;9.72;65.38
39491;BME280;25175;50.140;18.990;2023-03-21T00:20:32;98476.59;;;9.73;65.54
39491;BME280;25175;50.140;18.990;2023-03-21T00:23:38;98463.09;;;9.70;65.34
39491;BME280;25175;50.140;18.990;2023-03-21T00:26:45;98462.28;;;9.63;65.33
39491;BME280;25175;50.140;18.990;2023-03-21T00:29:51;98453.00;;;9.67;65.32
39491;BME280;25175;50.140;18.990;2023-03-21T00:32:56;98470.16;;;9.76;65.29
39491;BME280;25175;50.140;18.990;2023-03-21T00:36:01;98463.69;;;9.72;65.52
39491;BME280;25175;50.140;18.990;2023-03-21T00:39:07;98459.66;;;9.69;65.71
39491;BME280;25175;50.140;18.990;2023-03-21T00:42:15;98465.28;;;9.66;65.80
39491;BME280;25175;50.140;18.990;2023-03-21T00:45:20;98467.31;;;9.64;66.09
39491;BME280;25175;50.140;18.990;2023-03-21T00:48:26;98465.28;;;9.66;65.92
39491;BME280;25175;50.140;18.990;2023-03-21T00:51:31;98472.34;;;9.66;66.16
39491;BME280;25175;50.140;18.990;2023-03-21T00:54:37;98465.13;;;9.61;66.05
39491;BME280;25175;50.140;18.990;2023-03-21T00:57:45;98473.38;;;9.58;66.51
39491;BME280;25175;50.140;18.990;2023-03-21T01:00:50;98468.94;;;9.59;66.83
39491;BME280;25175;50.140;18.990;2023-03-21T01:03:54;98470.16;;;9.56;66.85
39491;BME280;25175;50.140;18.990;2023-03-21T01:07:05;98453.22;;;9.33;67.37
39491;BME280;25175;50.140;18.990;2023-03-21T01:10:10;98479.00;;;9.42;67.57
39491;BME280;25175;50.140;18.990;2023-03-21T01:13:20;98480.00;;;9.35;67.89
39491;BME280;25175;50.140;18.990;2023-03-21T01:16:26;98474.34;;;9.31;67.96
39491;BME280;25175;50.140;18.990;2023-03-21T01:19:31;98474.78;;;9.28;68.10
39491;BME280;25175;50.140;18.990;2023-03-21T01:22:35;98475.94;;;9.19;68.30
39491;BME280;25175;50.140;18.990;2023-03-21T01:25:41;98477.75;;;9.19;68.53
39491;BME280;25175;50.140;18.990;2023-03-21T01:28:49;98481.38;;;9.18;68.79
39491;BME280;25175;50.140;18.990;2023-03-21T01:31:54;98477.75;;;9.19;68.54
39491;BME280;25175;50.140;18.990;2023-03-21T01:34:58;98450.97;;;9.04;68.44
39491;BME280;25175;50.140;18.990;2023-03-21T01:38:04;98466.28;;;9.26;68.46
39491;BME280;25175;50.140;18.990;2023-03-21T01:41:20;98465.91;;;9.29;68.26
39491;BME280;25175;50.140;18.990;2023-03-21T01:44:50;98461.66;;;9.35;68.00
39491;BME280;25175;50.140;18.990;2023-03-21T01:47:57;98468.53;;;9.42;67.80
39491;BME280;25175;50.140;18.990;2023-03-21T01:51:14;98455.22;;;9.44;67.71
39491;BME280;25175;50.140;18.990;2023-03-21T01:54:34;98458.88;;;9.43;67.48
39491;BME280;25175;50.140;18.990;2023-03-21T01:57:48;98452.81;;;9.42;67.76
39491;BME280;25175;50.140;18.990;2023-03-21T02:01:00;98461.06;;;9.46;67.53
39491;BME280;25175;50.140;18.990;2023-03-21T02:04:19;98448.16;;;9.51;67.37
39491;BME280;25175;50.140;18.990;2023-03-21T02:07:52;98451.41;;;9.53;67.26
39491;BME280;25175;50.140;18.990;2023-03-21T02:10:58;98445.75;;;9.56;67.13
39491;BME280;25175;50.140;18.990;2023-03-21T02:14:14;98441.34;;;9.56;66.97
39491;BME280;25175;50.140;18.990;2023-03-21T02:17:39;98433.28;;;9.51;67.02
39491;BME280;25175;50.140;18.990;2023-03-21T02:25:43;98432.66;;;9.56;66.49
39491;BME280;25175;50.140;18.990;2023-03-21T02:29:18;98432.06;;;9.54;66.48
39491;BME280;25175;50.140;18.990;2023-03-21T02:33:10;98446.78;;;9.61;66.16
39491;BME280;25175;50.140;18.990;2023-03-21T02:36:51;98443.53;;;9.59;66.16
39491;BME280;25175;50.140;18.990;2023-03-21T02:40:12;98443.72;;;9.58;66.07
39491;BME280;25175;50.140;18.990;2023-03-21T02:43:29;98444.34;;;9.60;66.12
39491;BME280;25175;50.140;18.990;2023-03-21T02:46:45;98446.56;;;9.56;66.00
39491;BME280;25175;50.140;18.990;2023-03-21T02:49:59;98460.06;;;9.53;66.11
39491;BME280;25175;50.140;18.990;2023-03-21T02:53:18;98455.44;;;9.49;66.16
39491;BME280;25175;50.140;18.990;2023-03-21T02:56:28;98442.91;;;9.44;66.43
39491;BME280;25175;50.140;18.990;2023-03-21T02:59:37;98441.53;;;9.42;66.41
39491;BME280;25175;50.140;18.990;2023-03-21T03:02:49;98447.97;;;9.39;66.51
39491;BME280;25175;50.140;18.990;2023-03-21T03:05:58;98444.16;;;9.35;66.53
39491;BME280;25175;50.140;18.990;2023-03-21T03:09:25;98446.38;;;9.32;66.65
39491;BME280;25175;50.140;18.990;2023-03-21T03:12:48;98439.09;;;9.21;66.67
39491;BME280;25175;50.140;18.990;2023-03-21T03:16:15;98453.22;;;9.20;66.85
39491;BME280;25175;50.140;18.990;2023-03-21T03:19:31;98446.75;;;9.16;66.86
39491;BME280;25175;50.140;18.990;2023-03-21T03:22:45;98340.34;;;8.50;67.05
39491;BME280;25175;50.140;18.990;2023-03-21T03:26:05;98451.16;;;9.15;67.02
39491;BME280;25175;50.140;18.990;2023-03-21T03:29:17;98436.66;;;9.13;67.02
39491;BME280;25175;50.140;18.990;2023-03-21T03:32:30;98441.09;;;9.19;66.87
39491;BME280;25175;50.140;18.990;2023-03-21T03:35:45;98432.66;;;9.17;66.74
39491;BME280;25175;50.140;18.990;2023-03-21T03:38:52;98302.88;;;8.30;66.79
39491;BME280;25175;50.140;18.990;2023-03-21T03:42:07;98439.50;;;9.18;66.77
39491;BME280;25175;50.140;18.990;2023-03-21T03:45:25;98440.28;;;9.12;66.89
39491;BME280;25175;50.140;18.990;2023-03-21T03:48:43;98443.91;;;9.11;66.92
39491;BME280;25175;50.140;18.990;2023-03-21T03:52:00;98433.84;;;9.08;67.20
39491;BME280;25175;50.140;18.990;2023-03-21T03:55:17;98433.44;;;9.04;67.23
39491;BME280;25175;50.140;18.990;2023-03-21T03:58:30;98436.84;;;8.98;67.48
39491;BME280;25175;50.140;18.990;2023-03-21T04:01:34;98435.44;;;8.96;67.65
39491;BME280;25175;50.140;18.990;2023-03-21T04:04:39;98444.69;;;8.92;67.69
39491;BME280;25175;50.140;18.990;2023-03-21T04:07:44;98431.41;;;8.87;67.84
39491;BME280;25175;50.140;18.990;2023-03-21T04:10:52;98441.66;;;8.82;68.00
39491;BME280;25175;50.140;18.990;2023-03-21T04:14:00;98431.38;;;8.80;68.02
39491;BME280;25175;50.140;18.990;2023-03-21T04:17:05;98437.81;;;8.78;68.21
39491;BME280;25175;50.140;18.990;2023-03-21T04:20:11;98441.22;;;8.72;68.19
39491;BME280;25175;50.140;18.990;2023-03-21T04:23:17;98447.88;;;8.74;68.27
39491;BME280;25175;50.140;18.990;2023-03-21T04:26:24;98419.03;;;8.61;68.26
39491;BME280;25175;50.140;18.990;2023-03-21T04:29:54;98436.38;;;8.69;68.48
39491;BME280;25175;50.140;18.990;2023-03-21T04:33:19;98417.19;;;8.55;68.79
39491;BME280;25175;50.140;18.990;2023-03-21T04:36:30;98432.94;;;8.62;68.70
39491;BME280;25175;50.140;18.990;2023-03-21T04:39:41;98434.31;;;8.58;68.79
39491;BME280;25175;50.140;18.990;2023-03-21T04:42:47;98395.00;;;8.32;68.64
39491;BME280;25175;50.140;18.990;2023-03-21T04:45:54;98435.72;;;8.54;68.57
39491;BME280;25175;50.140;18.990;2023-03-21T04:48:59;98432.66;;;8.50;68.77
39491;BME280;25175;50.140;18.990;2023-03-21T04:52:04;98435.72;;;8.54;68.50
39491;BME280;25175;50.140;18.990;2023-03-21T04:55:10;98435.34;;;8.57;68.43
39491;BME280;25175;50.140;18.990;2023-03-21T04:58:14;98436.94;;;8.58;68.31
39491;BME280;25175;50.140;18.990;2023-03-21T05:01:23;98436.94;;;8.58;67.97
39491;BME280;25175;50.140;18.990;2023-03-21T05:04:31;98445.59;;;8.58;68.06
39491;BME280;25175;50.140;18.990;2023-03-21T05:07:37;98445.41;;;8.60;68.06
39491;BME280;25175;50.140;18.990;2023-03-21T05:10:42;98451.44;;;8.60;67.89
39491;BME280;25175;50.140;18.990;2023-03-21T05:13:47;98445.59;;;8.58;67.69
39491;BME280;25175;50.140;18.990;2023-03-21T05:16:54;98446.63;;;8.57;68.06
39491;BME280;25175;50.140;18.990;2023-03-21T05:20:04;98440.56;;;8.57;67.88
39491;BME280;25175;50.140;18.990;2023-03-21T05:23:11;98427.19;;;8.45;67.83
39491;BME280;25175;50.140;18.990;2023-03-21T05:26:21;98438.50;;;8.52;67.68
39491;BME280;25175;50.140;18.990;2023-03-21T05:29:38;98423.19;;;8.43;67.59
39491;BME280;25175;50.140;18.990;2023-03-21T05:32:47;98443.28;;;8.42;67.98
39491;BME280;25175;50.140;18.990;2023-03-21T05:35:53;98431.78;;;8.30;67.89
39491;BME280;25175;50.140;18.990;2023-03-21T05:39:03;98450.50;;;8.34;68.16
39491;BME280;25175;50.140;18.990;2023-03-21T05:42:12;98449.69;;;8.33;68.31
39491;BME280;25175;50.140;18.990;2023-03-21T05:45:17;98460.75;;;8.35;68.50
39491;BME280;25175;50.140;18.990;2023-03-21T05:48:30;98464.22;;;8.42;68.39
39491;BME280;25175;50.140;18.990;2023-03-21T05:52:01;98455.78;;;8.47;68.26
39491;BME280;25175;50.140;18.990;2023-03-21T05:55:07;98452.38;;;8.46;68.17
39491;BME280;25175;50.140;18.990;2023-03-21T05:58:13;98453.16;;;8.47;68.34
39491;BME280;25175;50.140;18.990;2023-03-21T06:01:22;98462.19;;;8.44;68.40
39491;BME280;25175;50.140;18.990;2023-03-21T06:04:43;98453.38;;;8.52;68.30
39491;BME280;25175;50.140;18.990;2023-03-21T06:07:48;98447.56;;;8.50;68.41
39491;BME280;25175;50.140;18.990;2023-03-21T06:10:53;98458.44;;;8.53;68.33
39491;BME280;25175;50.140;18.990;2023-03-21T06:13:58;98450.34;;;8.48;68.08
39491;BME280;25175;50.140;18.990;2023-03-21T06:17:03;98444.13;;;8.43;68.38
39491;BME280;25175;50.140;18.990;2023-03-21T06:20:13;98453.78;;;8.49;68.75
39491;BME280;25175;50.140;18.990;2023-03-21T06:23:23;98456.63;;;8.54;68.45
39491;BME280;25175;50.140;18.990;2023-03-21T06:26:29;98454.19;;;8.52;68.27
39491;BME280;25175;50.140;18.990;2023-03-21T06:29:36;98463.84;;;8.52;68.08
39491;BME280;25175;50.140;18.990;2023-03-21T06:32:41;98457.41;;;8.54;68.21
39491;BME280;25175;50.140;18.990;2023-03-21T06:35:55;98461.03;;;8.53;68.19
39491;BME280;25175;50.140;18.990;2023-03-21T06:39:01;98467.09;;;8.54;68.37
39491;BME280;25175;50.140;18.990;2023-03-21T06:42:08;98466.53;;;8.58;68.35
39491;BME280;25175;50.140;18.990;2023-03-21T06:45:13;98467.75;;;8.62;68.17
39491;BME280;25175;50.140;18.990;2023-03-21T06:48:18;98465.13;;;8.62;68.09
39491;BME280;25175;50.140;18.990;2023-03-21T06:51:27;98474.59;;;8.70;67.85
39491;BME280;25175;50.140;18.990;2023-03-21T06:54:54;98465.56;;;8.66;67.86
39491;BME280;25175;50.140;18.990;2023-03-21T06:57:58;98476.38;;;8.63;67.77
39491;BME280;25175;50.140;18.990;2023-03-21T07:01:04;98478.00;;;8.64;67.88
39491;BME280;25175;50.140;18.990;2023-03-21T07:04:18;98480.00;;;8.62;68.21
39491;BME280;25175;50.140;18.990;2023-03-21T07:07:27;98468.53;;;8.63;68.40
39491;BME280;25175;50.140;18.990;2023-03-21T07:10:32;98484.88;;;8.71;68.23
39491;BME280;25175;50.140;18.990;2023-03-21T07:13:41;98488.91;;;8.74;68.29
39491;BME280;25175;50.140;18.990;2023-03-21T07:16:45;98501.38;;;8.72;68.45
39491;BME280;25175;50.140;18.990;2023-03-21T07:19:50;98498.13;;;8.63;68.68
39491;BME280;25175;50.140;18.990;2023-03-21T07:22:58;98492.72;;;8.65;69.04
39491;BME280;25175;50.140;18.990;2023-03-21T07:26:04;98498.47;;;8.54;69.16
39491;BME280;25175;50.140;18.990;2023-03-21T07:29:09;98509.38;;;8.64;69.36
39491;BME280;25175;50.140;18.990;2023-03-21T07:32:15;98504.78;;;8.66;69.34
39491;BME280;25175;50.140;18.990;2023-03-21T07:35:20;98513.03;;;8.69;69.32
39491;BME280;25175;50.140;18.990;2023-03-21T07:38:29;98510.25;;;8.71;69.23
39491;BME280;25175;50.140;18.990;2023-03-21T07:41:33;98519.69;;;8.72;69.53
39491;BME280;25175;50.140;18.990;2023-03-21T07:44:55;98495.53;;;8.63;69.45
39491;BME280;25175;50.140;18.990;2023-03-21T07:48:04;98514.69;;;8.77;69.62
39491;BME280;25175;50.140;18.990;2023-03-21T07:51:09;98426.09;;;8.20;69.44
39491;BME280;25175;50.140;18.990;2023-03-21T07:54:17;98511.84;;;8.72;69.43
39491;BME280;25175;50.140;18.990;2023-03-21T07:57:23;98527.91;;;8.69;69.66
39491;BME280;25175;50.140;18.990;2023-03-21T08:00:28;98506.59;;;8.65;69.74
39491;BME280;25175;50.140;18.990;2023-03-21T08:03:33;98512.63;;;8.72;69.83
39491;BME280;25175;50.140;18.990;2023-03-21T08:06:37;98514.28;;;8.80;69.68
39491;BME280;25175;50.140;18.990;2023-03-21T08:09:45;98522.34;;;8.85;69.72
39491;BME280;25175;50.140;18.990;2023-03-21T08:12:50;98519.78;;;8.91;69.48
39491;BME280;25175;50.140;18.990;2023-03-21T08:15:55;98524.03;;;8.99;69.04
39491;BME280;25175;50.140;18.990;2023-03-21T08:18:59;98516.38;;;8.97;69.07
39491;BME280;25175;50.140;18.990;2023-03-21T08:22:04;98530.91;;;9.06;68.99
39491;BME280;25175;50.140;18.990;2023-03-21T08:25:14;98532.09;;;9.10;68.76
39491;BME280;25175;50.140;18.990;2023-03-21T08:28:21;98523.47;;;9.10;68.28
39491;BME280;25175;50.140;18.990;2023-03-21T08:31:26;98522.84;;;9.08;68.23
39491;BME280;25175;50.140;18.990;2023-03-21T08:34:32;98535.53;;;9.11;68.31
39491;BME280;25175;50.140;18.990;2023-03-21T08:37:36;98528.69;;;9.10;68.49
39491;BME280;25175;50.140;18.990;2023-03-21T08:40:45;98539.94;;;9.10;68.82
39491;BME280;25175;50.140;18.990;2023-03-21T08:43:49;98536.97;;;9.13;68.80
39491;BME280;25175;50.140;18.990;2023-03-21T08:46:54;98533.31;;;9.14;68.81
39491;BME280;25175;50.140;18.990;2023-03-21T08:49:58;98536.75;;;9.15;68.87
39491;BME280;25175;50.140;18.990;2023-03-21T08:53:07;98528.28;;;9.13;68.75
39491;BME280;25175;50.140;18.990;2023-03-21T08:56:14;98534.16;;;9.21;68.39
39491;BME280;25175;50.140;18.990;2023-03-21T08:59:19;98537.16;;;9.25;69.08
39491;BME280;25175;50.140;18.990;2023-03-21T09:02:24;98525.31;;;9.29;68.41
39491;BME280;25175;50.140;18.990;2023-03-21T09:05:29;98536.59;;;9.29;67.55
39491;BME280;25175;50.140;18.990;2023-03-21T09:08:34;98533.19;;;9.35;67.21
39491;BME280;25175;50.140;18.990;2023-03-21T09:11:42;98548.91;;;9.42;66.77
39491;BME280;25175;50.140;18.990;2023-03-21T09:14:47;98544.09;;;9.45;66.42
39491;BME280;25175;50.140;18.990;2023-03-21T09:17:54;98558.59;;;9.48;66.23
39491;BME280;25175;50.140;18.990;2023-03-21T09:21:13;98544.06;;;9.52;66.31
39491;BME280;25175;50.140;18.990;2023-03-21T09:24:20;98550.94;;;9.53;65.90
39491;BME280;25175;50.140;18.990;2023-03-21T09:27:28;98541.44;;;9.52;66.03
39491;BME280;25175;50.140;18.990;2023-03-21T09:30:36;98542.47;;;9.51;65.55
39491;BME280;25175;50.140;18.990;2023-03-21T09:33:41;98554.56;;;9.52;66.32
39491;BME280;25175;50.140;18.990;2023-03-21T09:36:47;98527.34;;;9.40;65.61
39491;BME280;25175;50.140;18.990;2023-03-21T09:39:52;98553.34;;;9.54;65.80
39491;BME280;25175;50.140;18.990;2023-03-21T09:43:13;98558.81;;;9.66;65.46
39491;BME280;25175;50.140;18.990;2023-03-21T09:46:40;98564.66;;;9.68;65.09
39491;BME280;25175;50.140;18.990;2023-03-21T09:49:55;98542.47;;;9.51;64.87
39491;BME280;25175;50.140;18.990;2023-03-21T09:53:09;98558.78;;;9.59;65.15
39491;BME280;25175;50.140;18.990;2023-03-21T09:56:23;98553.16;;;9.62;64.72
39491;BME280;25175;50.140;18.990;2023-03-21T09:59:35;98556.00;;;9.61;64.93
39491;BME280;25175;50.140;18.990;2023-03-21T10:02:46;98551.13;;;9.58;65.02
39491;BME280;25175;50.140;18.990;2023-03-21T10:05:55;98522.72;;;9.42;64.44
39491;BME280;25175;50.140;18.990;2023-03-21T10:09:06;98553.97;;;9.63;64.53
39491;BME280;25175;50.140;18.990;2023-03-21T10:12:21;98543.88;;;9.53;64.71
39491;BME280;25175;50.140;18.990;2023-03-21T10:15:34;98541.66;;;9.57;64.80
39491;BME280;25175;50.140;18.990;2023-03-21T10:18:42;98559.03;;;9.71;63.88
39491;BME280;25175;50.140;18.990;2023-03-21T10:21:50;98551.75;;;9.73;63.71
39491;BME280;25175;50.140;18.990;2023-03-21T10:24:55;98556.41;;;9.71;63.89
39491;BME280;25175;50.140;18.990;2023-03-21T10:28:01;98564.47;;;9.76;63.36
39491;BME280;25175;50.140;18.990;2023-03-21T10:31:16;98560.44;;;9.73;63.09
39491;BME280;25175;50.140;18.990;2023-03-21T10:34:31;98556.81;;;9.74;63.25
39491;BME280;25175;50.140;18.990;2023-03-21T10:37:39;98436.88;;;9.05;63.37
39491;BME280;25175;50.140;18.990;2023-03-21T10:40:45;98557.22;;;9.78;62.95
39491;BME280;25175;50.140;18.990;2023-03-21T10:44:05;98546.72;;;9.78;63.77
39491;BME280;25175;50.140;18.990;2023-03-21T10:47:19;98523.34;;;9.70;63.97
39491;BME280;25175;50.140;18.990;2023-03-21T10:50:29;98562.91;;;9.88;62.64
39491;BME280;25175;50.140;18.990;2023-03-21T10:53:38;98561.47;;;9.85;63.39
39491;BME280;25175;50.140;18.990;2023-03-21T10:56:55;98555.66;;;9.83;63.29
39491;BME280;25175;50.140;18.990;2023-03-21T11:00:06;98557.66;;;9.88;63.82
39491;BME280;25175;50.140;18.990;2023-03-21T11:03:26;98565.50;;;9.88;63.35
39491;BME280;25175;50.140;18.990;2023-03-21T11:06:37;98565.72;;;9.86;62.88
39491;BME280;25175;50.140;18.990;2023-03-21T11:09:47;98562.69;;;9.83;63.15
39491;BME280;25175;50.140;18.990;2023-03-21T11:12:56;98532.03;;;9.64;63.12
39491;BME280;25175;50.140;18.990;2023-03-21T11:16:08;98519.31;;;9.61;63.18
39491;BME280;25175;50.140;18.990;2023-03-21T11:19:19;98566.94;;;9.90;63.44
39491;BME280;25175;50.140;18.990;2023-03-21T11:22:38;98557.84;;;9.93;63.53
39491;BME280;25175;50.140;18.990;2023-03-21T11:25:48;98551.19;;;9.90;62.79
39491;BME280;25175;50.140;18.990;2023-03-21T11:28:55;98551.81;;;9.99;62.77
39491;BME280;25175;50.140;18.990;2023-03-21T11:32:10;98554.00;;;10.02;62.79
39491;BME280;25175;50.140;18.990;2023-03-21T11:35:22;98554.44;;;10.05;62.44
39491;BME280;25175;50.140;18.990;2023-03-21T11:38:36;98545.94;;;10.10;62.13
39491;BME280;25175;50.140;18.990;2023-03-21T11:41:47;98550.00;;;10.19;61.85
39491;BME280;25175;50.140;18.990;2023-03-21T11:45:09;98537.47;;;10.27;61.79
39491;BME280;25175;50.140;18.990;2023-03-21T11:48:16;98524.16;;;10.22;61.09
39491;BME280;25175;50.140;18.990;2023-03-21T11:51:31;98544.72;;;10.38;60.25
39491;BME280;25175;50.140;18.990;2023-03-21T11:54:57;98538.84;;;10.43;59.21
39491;BME280;25175;50.140;18.990;2023-03-21T11:58:37;98396.41;;;9.53;58.92
39491;BME280;25175;50.140;18.990;2023-03-21T12:02:03;98541.06;;;10.39;58.83
39491;BME280;25175;50.140;18.990;2023-03-21T12:05:33;98539.66;;;10.37;59.49
39491;BME280;25175;50.140;18.990;2023-03-21T12:08:51;98531.59;;;10.32;58.59
39491;BME280;25175;50.140;18.990;2023-03-21T12:12:19;98529.75;;;10.32;59.15
39491;BME280;25175;50.140;18.990;2023-03-21T12:15:43;98510.03;;;10.17;59.06
39491;BME280;25175;50.140;18.990;2023-03-21T12:19:14;98527.75;;;10.34;59.03
39491;BME280;25175;50.140;18.990;2023-03-21T12:22:39;98537.44;;;10.34;58.43
39491;BME280;25175;50.140;18.990;2023-03-21T12:26:07;98540.69;;;10.29;58.06
39491;BME280;25175;50.140;18.990;2023-03-21T12:29:41;98538.66;;;10.31;58.28
39491;BME280;25175;50.140;18.990;2023-03-21T12:37:09;98518.50;;;10.25;58.60
39491;BME280;25175;50.140;18.990;2023-03-21T12:40:38;98524.56;;;10.19;58.69
39491;BME280;25175;50.140;18.990;2023-03-21T12:43:59;98523.94;;;10.24;59.01
39491;BME280;25175;50.140;18.990;2023-03-21T12:47:12;98519.09;;;10.27;58.49
39491;BME280;25175;50.140;18.990;2023-03-21T12:50:23;98517.28;;;10.28;57.64
39491;BME280;25175;50.140;18.990;2023-03-21T12:57:17;98500.75;;;10.21;58.73
39491;BME280;25175;50.140;18.990;2023-03-21T13:00:36;98483.81;;;10.10;58.71
39491;BME280;25175;50.140;18.990;2023-03-21T13:03:50;98503.56;;;10.26;58.68
39491;BME280;25175;50.140;18.990;2023-03-21T13:07:14;98510.03;;;10.30;58.68
39491;BME280;25175;50.140;18.990;2023-03-21T13:10:25;98501.72;;;10.33;58.38
39491;BME280;25175;50.140;18.990;2023-03-21T13:13:37;98503.53;;;10.32;58.20
39491;BME280;25175;50.140;18.990;2023-03-21T13:16:54;98492.66;;;10.29;58.48
39491;BME280;25175;50.140;18.990;2023-03-21T13:20:16;98491.47;;;10.25;58.42
39491;BME280;25175;50.140;18.990;2023-03-21T13:23:34;98471.13;;;10.07;58.23
39491;BME280;25175;50.140;18.990;2023-03-21T13:26:47;98487.84;;;10.26;57.55
39491;BME280;25175;50.140;18.990;2023-03-21T13:29:58;98491.81;;;10.35;57.97
39491;BME280;25175;50.140;18.990;2023-03-21T13:33:12;98489.84;;;10.30;57.76
39491;BME280;25175;50.140;18.990;2023-03-21T13:36:23;98498.09;;;10.34;57.66
39491;BME280;25175;50.140;18.990;2023-03-21T13:39:32;98491.25;;;10.26;57.63
39491;BME280;25175;50.140;18.990;2023-03-21T13:42:44;98491.47;;;10.25;58.12
39491;BME280;25175;50.140;18.990;2023-03-21T13:46:05;98485.81;;;10.21;58.02
39491;BME280;25175;50.140;18.990;2023-03-21T13:49:26;98476.53;;;10.25;58.33
39491;BME280;25175;50.140;18.990;2023-03-21T13:52:33;98492.44;;;10.37;57.88
39491;BME280;25175;50.140;18.990;2023-03-21T13:55:40;98332.34;;;9.49;58.07
39491;BME280;25175;50.140;18.990;2023-03-21T13:58:58;98457.97;;;10.33;57.92
39491;BME280;25175;50.140;18.990;2023-03-21T14:02:27;98447.47;;;10.33;57.46
39491;BME280;25175;50.140;18.990;2023-03-21T14:05:38;98472.03;;;10.45;58.07
39491;BME280;25175;50.140;18.990;2023-03-21T14:08:45;98456.13;;;10.40;57.92
39491;BME280;25175;50.140;18.990;2023-03-21T14:11:54;98463.53;;;10.50;57.73
39491;BME280;25175;50.140;18.990;2023-03-21T14:15:04;98465.75;;;10.53;58.08
39491;BME280;25175;50.140;18.990;2023-03-21T14:18:14;98464.53;;;10.55;57.67
39491;BME280;25175;50.140;18.990;2023-03-21T14:21:24;98469.97;;;10.60;57.45
39491;BME280;25175;50.140;18.990;2023-03-21T14:24:31;98469.53;;;10.63;57.34
39491;BME280;25175;50.140;18.990;2023-03-21T14:27:35;98457.81;;;10.66;57.05
39491;BME280;25175;50.140;18.990;2023-03-21T14:30:43;98460.44;;;10.66;56.63
39491;BME280;25175;50.140;18.990;2023-03-21T14:33:51;98465.50;;;10.61;56.12
39491;BME280;25175;50.140;18.990;2023-03-21T14:37:05;98456.63;;;10.62;56.83
39491;BME280;25175;50.140;18.990;2023-03-21T14:40:22;98463.28;;;10.64;57.14
39491;BME280;25175;50.140;18.990;2023-03-21T14:43:29;98469.75;;;10.62;56.50
39491;BME280;25175;50.140;18.990;2023-03-21T14:46:34;98459.44;;;10.67;56.34
39491;BME280;25175;50.140;18.990;2023-03-21T14:49:39;98466.06;;;10.69;56.12
39491;BME280;25175;50.140;18.990;2023-03-21T14:52:46;98458.41;;;10.68;56.54
39491;BME280;25175;50.140;18.990;2023-03-21T14:55:57;98453.16;;;10.68;56.49
39491;BME280;25175;50.140;18.990;2023-03-21T14:59:05;98461.03;;;10.68;56.44
39491;BME280;25175;50.140;18.990;2023-03-21T15:02:18;98458.59;;;10.73;56.44
39491;BME280;25175;50.140;18.990;2023-03-21T15:05:31;98453.72;;;10.76;57.13
39491;BME280;25175;50.140;18.990;2023-03-21T15:08:53;98460.16;;;10.80;56.56
39491;BME280;25175;50.140;18.990;2023-03-21T15:12:00;98449.88;;;10.79;56.32
39491;BME280;25175;50.140;18.990;2023-03-21T15:15:15;98448.63;;;10.88;56.13
39491;BME280;25175;50.140;18.990;2023-03-21T15:18:25;98450.44;;;10.87;56.55
39491;BME280;25175;50.140;18.990;2023-03-21T15:21:38;98452.06;;;10.88;56.58
39491;BME280;25175;50.140;18.990;2023-03-21T15:24:52;98445.19;;;10.87;55.56
39491;BME280;25175;50.140;18.990;2023-03-21T15:28:05;98428.84;;;10.85;55.71
39491;BME280;25175;50.140;18.990;2023-03-21T15:31:16;98440.75;;;10.94;56.05
39491;BME280;25175;50.140;18.990;2023-03-21T15:34:27;98436.53;;;10.93;55.16
39491;BME280;25175;50.140;18.990;2023-03-21T15:37:36;98431.44;;;10.92;55.25
39491;BME280;25175;50.140;18.990;2023-03-21T15:40:44;98419.53;;;10.89;55.52
39491;BME280;25175;50.140;18.990;2023-03-21T15:43:59;98430.63;;;10.98;55.82
39491;BME280;25175;50.140;18.990;2023-03-21T15:47:12;98436.66;;;10.98;55.85
39491;BME280;25175;50.140;18.990;2023-03-21T15:50:25;98401.66;;;10.80;56.30
39491;BME280;25175;50.140;18.990;2023-03-21T15:53:35;98432.22;;;10.92;56.83
39491;BME280;25175;50.140;18.990;2023-03-21T15:56:47;98425.22;;;10.93;57.28
39491;BME280;25175;50.140;18.990;2023-03-21T15:59:56;98427.81;;;10.99;57.28
39491;BME280;25175;50.140;18.990;2023-03-21T16:03:19;98407.28;;;10.83;57.23
39491;BME280;25175;50.140;18.990;2023-03-21T16:06:30;98427.81;;;10.99;56.83
39491;BME280;25175;50.140;18.990;2023-03-21T16:09:38;98418.94;;;10.87;57.12
39491;BME280;25175;50.140;18.990;2023-03-21T16:12:50;98423.78;;;10.90;57.08
39491;BME280;25175;50.140;18.990;2023-03-21T16:15:55;98394.63;;;10.67;57.38
39491;BME280;25175;50.140;18.990;2023-03-21T16:19:01;98424.63;;;10.84;57.67
39491;BME280;25175;50.140;18.990;2023-03-21T16:22:08;98443.41;;;10.81;57.76
39491;BME280;25175;50.140;18.990;2023-03-21T16:25:15;98430.50;;;10.80;58.22
39491;BME280;25175;50.140;18.990;2023-03-21T16:28:22;98432.91;;;10.81;57.98
39491;BME280;25175;50.140;18.990;2023-03-21T16:31:30;98437.19;;;10.76;57.89
39491;BME280;25175;50.140;18.990;2023-03-21T16:34:36;98439.22;;;10.74;58.05
39491;BME280;25175;50.140;18.990;2023-03-21T16:37:43;98438.81;;;10.70;57.89
39491;BME280;25175;50.140;18.990;2023-03-21T16:40:48;98441.69;;;10.69;57.98
39491;BME280;25175;50.140;18.990;2023-03-21T16:43:56;98435.03;;;10.66;58.02
39491;BME280;25175;50.140;18.990;2023-03-21T16:47:02;98446.13;;;10.62;58.15
39491;BME280;25175;50.140;18.990;2023-03-21T16:50:20;98440.50;;;10.58;58.32
39491;BME280;25175;50.140;18.990;2023-03-21T16:53:29;98439.72;;;10.51;58.43
39491;BME280;25175;50.140;18.990;2023-03-21T16:56:37;98440.75;;;10.50;58.47
39491;BME280;25175;50.140;18.990;2023-03-21T16:59:47;98433.72;;;10.44;58.61
39491;BME280;25175;50.140;18.990;2023-03-21T17:02:54;98446.00;;;10.44;58.87